Portada
METAR-TAF:

METAR-TAF

Aeroports :

Kotah, Índia

latitud: 25-09-36N, longitud: 075-50-44E, altitud: 273 m

Observació

L'informe es va fer fa 19 minuts, a les 05:00 UTC
Vent 2 kt del Nord-Oest
Temperatura 32°C
Humitat 20%
Pressió 1011 hPa
Visibilitat: 6000 m
Escasses núvols a una alçada de 10000 ft

METAR: VIKO 200500Z 32002KT 6000 FEW100 32/06 Q1011 NOSIG

Hora: 10:49 (05:19 UTC)

Pronòstic

L'informe es va fer fa 6 hores i 19 minuts, a les 23:00 UTC
Pronòstic vàlid del 20 a les 00 UTC al 20 a les 09 UTC
Vent 2 kt amb direcció variable
Visibilitat: 2000 m
Escasses núvols a una alçada de 3500 ft
calitja
Evolucionant progressivament
l' 20 a les 04 UTC al 20 a les 06 UTC
Vent 5 kt del Sud-Oest
Visibilitat: 4000 m
Escasses núvols a una alçada de 3500 ft
Núvols disperses a una alçada de 10000 ft
calitja

TAF: VIKO 192300Z 2000/2009 VRB02KT 2000 HZ FEW035 BECMG 2004/2006 23005KT 4000 HZ FEW035 SCT100

Observacions i pronòstics meteorològics de més de 4000 aeroports (METAR i TAF).

Les estacions disponibles són els punts grocs i vermells al mapa.

Posi el ratolí al punt desitjat per veure el nom de l'estació.

Feu clic per veure les observacions i els pronòstics meteorològics.

Per canviar el mapa: feu clic els botons verds amb una creu de color negre per apropar; al botó verd amb un guió per allunyar la imatge; o en les fletxes verdes per a mapes adjacents.


METAR-TAF: